createdAt,value
2023-04-18T00:00:41.596Z,9.90
2023-04-18T00:03:09.006Z,10.13
2023-04-18T00:05:36.301Z,12.23
2023-04-18T00:08:04.755Z,13.60
2023-04-18T00:10:31.849Z,16.33
2023-04-18T00:12:58.909Z,11.93
2023-04-18T00:15:25.983Z,10.50
2023-04-18T00:17:53.173Z,14.70
2023-04-18T00:20:20.408Z,12.07
2023-04-18T00:22:47.508Z,13.27
2023-04-18T00:25:15.953Z,13.93
2023-04-18T00:27:43.113Z,15.20
2023-04-18T00:30:10.603Z,13.60
2023-04-18T00:32:37.969Z,13.57
2023-04-18T00:35:05.422Z,15.10
2023-04-18T00:37:32.574Z,10.90
2023-04-18T00:39:59.764Z,18.70
2023-04-18T00:42:29.011Z,13.33
2023-04-18T00:44:56.047Z,12.23
2023-04-18T00:47:23.370Z,11.27
2023-04-18T00:49:50.526Z,15.70
2023-04-18T00:52:18.329Z,14.60
2023-04-18T00:54:45.583Z,15.20
2023-04-18T00:57:12.884Z,14.43
2023-04-18T00:59:41.293Z,13.13
2023-04-18T01:02:08.369Z,20.30
2023-04-18T01:04:35.781Z,13.70
2023-04-18T01:07:03.256Z,14.67
2023-04-18T01:09:30.608Z,16.67
2023-04-18T01:11:57.683Z,13.50
2023-04-18T01:14:24.751Z,15.87
2023-04-18T01:16:53.172Z,13.80
2023-04-18T01:19:20.255Z,19.10
2023-04-18T01:21:47.352Z,18.13
2023-04-18T01:24:16.430Z,14.40
2023-04-18T01:26:45.294Z,14.37
2023-04-18T01:29:12.558Z,15.63
2023-04-18T01:31:40.300Z,13.37
2023-04-18T01:34:07.751Z,15.90
2023-04-18T01:36:35.642Z,14.77
2023-04-18T01:39:02.922Z,21.50
2023-04-18T01:41:31.368Z,12.67
2023-04-18T01:43:58.492Z,14.90
2023-04-18T01:46:26.704Z,18.97
2023-04-18T01:48:54.306Z,16.87
2023-04-18T01:51:21.749Z,15.87
2023-04-18T01:53:48.827Z,18.20
2023-04-18T01:56:15.909Z,16.07
2023-04-18T01:58:44.332Z,13.97
2023-04-18T02:01:12.994Z,16.23
2023-04-18T02:03:40.467Z,14.87
2023-04-18T02:06:08.104Z,13.00
2023-04-18T02:08:35.852Z,14.70
2023-04-18T02:11:04.926Z,16.10
2023-04-18T02:13:32.310Z,19.10
2023-04-18T02:16:00.950Z,13.83
2023-04-18T02:18:28.460Z,13.87
2023-04-18T02:20:55.684Z,18.60
2023-04-18T02:23:23.062Z,14.43
2023-04-18T02:25:50.232Z,17.40
2023-04-18T02:28:18.098Z,13.00
2023-04-18T02:30:45.379Z,15.77
2023-04-18T02:33:13.883Z,14.63
2023-04-18T02:35:41.142Z,15.00
2023-04-18T02:38:09.325Z,15.63
2023-04-18T02:40:36.396Z,16.83
2023-04-18T02:43:03.536Z,17.57
2023-04-18T02:45:31.018Z,14.90
2023-04-18T02:48:00.443Z,15.17
2023-04-18T02:50:29.084Z,17.07
2023-04-18T02:52:57.605Z,17.90
2023-04-18T02:55:31.761Z,18.13
2023-04-18T02:58:00.210Z,17.30
2023-04-18T03:00:45.819Z,17.13
2023-04-18T03:03:33.399Z,17.17
2023-04-18T03:06:21.820Z,15.87
2023-04-18T03:08:49.178Z,14.07
2023-04-18T03:11:17.012Z,24.87
2023-04-18T03:13:44.340Z,17.07
2023-04-18T03:16:11.779Z,15.13
2023-04-18T03:18:39.195Z,15.57
2023-04-18T03:21:06.475Z,14.87
2023-04-18T03:23:36.053Z,19.03
2023-04-18T03:26:05.340Z,18.67
2023-04-18T03:28:34.754Z,18.93
2023-04-18T03:31:02.119Z,16.57
2023-04-18T03:33:29.553Z,16.50
2023-04-18T03:36:06.525Z,16.83
2023-04-18T03:38:33.854Z,22.30
2023-04-18T03:41:02.330Z,21.00
2023-04-18T03:43:33.766Z,18.70
2023-04-18T03:46:01.404Z,18.57
2023-04-18T03:48:28.967Z,19.43
2023-04-18T03:50:59.321Z,21.53
2023-04-18T03:53:26.570Z,20.87
2023-04-18T03:55:55.641Z,14.17
2023-04-18T03:58:29.710Z,19.47
2023-04-18T04:00:56.824Z,19.37
2023-04-18T04:03:24.059Z,20.40
2023-04-18T04:05:51.549Z,16.57
2023-04-18T04:08:18.903Z,15.77
2023-04-18T04:10:46.054Z,15.70
2023-04-18T04:13:13.318Z,17.20
2023-04-18T04:15:43.012Z,18.67
2023-04-18T04:18:10.840Z,16.30
2023-04-18T04:20:41.755Z,20.43
2023-04-18T04:23:13.377Z,22.73
2023-04-18T04:25:42.071Z,19.07
2023-04-18T04:28:18.278Z,19.53
2023-04-18T04:30:58.028Z,20.20
2023-04-18T04:33:26.933Z,17.60
2023-04-18T04:35:57.282Z,18.50
2023-04-18T04:38:24.658Z,19.53
2023-04-18T04:40:53.789Z,20.73
2023-04-18T04:43:21.230Z,17.67
2023-04-18T04:45:49.502Z,20.43
2023-04-18T04:48:18.042Z,16.47
2023-04-18T04:50:51.677Z,19.80
2023-04-18T04:53:18.878Z,20.77
2023-04-18T04:55:46.317Z,15.67
2023-04-18T04:58:13.467Z,18.70
2023-04-18T05:00:57.135Z,17.47
2023-04-18T05:03:26.127Z,17.80
2023-04-18T05:05:53.749Z,16.23
2023-04-18T05:08:22.228Z,17.00
2023-04-18T05:10:49.388Z,18.57
2023-04-18T05:13:16.465Z,15.53
2023-04-18T05:15:43.690Z,17.93
2023-04-18T05:18:10.844Z,15.70
2023-04-18T05:20:39.419Z,17.67
2023-04-18T05:23:06.646Z,19.37
2023-04-18T05:25:33.730Z,22.27
2023-04-18T05:28:00.949Z,17.07
2023-04-18T05:30:28.057Z,20.13
2023-04-18T05:32:55.287Z,18.07
2023-04-18T05:35:22.437Z,17.40
2023-04-18T05:37:50.857Z,19.00
2023-04-18T05:40:18.166Z,17.43
2023-04-18T05:42:45.436Z,18.37
2023-04-18T05:45:12.604Z,19.60
2023-04-18T05:47:39.805Z,16.50
2023-04-18T05:50:07.527Z,15.10
2023-04-18T05:52:34.704Z,16.90
2023-04-18T05:55:03.332Z,19.00
2023-04-18T05:57:30.477Z,16.47
2023-04-18T05:59:57.766Z,17.47
2023-04-18T06:02:25.098Z,14.47
2023-04-18T06:04:52.677Z,17.50
2023-04-18T06:07:19.930Z,18.97
2023-04-18T06:09:47.075Z,15.90
2023-04-18T06:12:15.460Z,19.60
2023-04-18T06:14:42.656Z,17.40
2023-04-18T06:17:09.887Z,17.77
2023-04-18T06:19:37.035Z,17.27
2023-04-18T06:22:04.156Z,18.20
2023-04-18T06:24:31.413Z,15.30
2023-04-18T06:26:58.509Z,17.03
2023-04-18T06:29:26.989Z,18.43
2023-04-18T06:31:54.120Z,18.80
2023-04-18T06:34:21.237Z,21.33
2023-04-18T06:36:48.315Z,15.30
2023-04-18T06:39:15.597Z,15.73
2023-04-18T06:41:42.717Z,14.00
2023-04-18T06:44:09.985Z,17.40
2023-04-18T06:46:38.450Z,14.27
2023-04-18T06:49:05.734Z,19.10
2023-04-18T06:51:32.849Z,19.80
2023-04-18T06:53:59.997Z,16.70
2023-04-18T06:56:27.236Z,13.03
2023-04-18T06:58:54.416Z,16.80
2023-04-18T07:01:21.596Z,14.87
2023-04-18T07:03:50.285Z,14.07
2023-04-18T07:06:17.555Z,10.80
2023-04-18T07:08:44.777Z,15.00
2023-04-18T07:11:12.037Z,15.10
2023-04-18T07:13:39.187Z,13.67
2023-04-18T07:16:06.696Z,17.17
2023-04-18T07:18:38.049Z,13.57
2023-04-18T07:21:07.852Z,12.03
2023-04-18T07:23:35.194Z,11.83
2023-04-18T07:26:02.837Z,11.83
2023-04-18T07:28:30.141Z,13.37
2023-04-18T07:30:57.360Z,11.93
2023-04-18T07:33:24.487Z,12.30
2023-04-18T07:35:51.809Z,15.03
2023-04-18T07:38:20.293Z,13.70
2023-04-18T07:40:47.459Z,12.60
2023-04-18T07:43:14.713Z,11.53
2023-04-18T07:45:41.893Z,11.50
2023-04-18T07:48:09.005Z,13.27
2023-04-18T07:50:36.143Z,16.03
2023-04-18T07:53:03.301Z,8.60
2023-04-18T07:55:31.867Z,12.67
2023-04-18T07:57:59.252Z,9.90
2023-04-18T08:00:26.821Z,10.07
2023-04-18T08:02:54.212Z,12.00
2023-04-18T08:05:21.501Z,9.07
2023-04-18T08:07:48.641Z,12.17
2023-04-18T08:10:15.808Z,13.60
2023-04-18T08:12:44.365Z,11.40
2023-04-18T08:15:12.022Z,12.20
2023-04-18T08:17:39.274Z,12.30
2023-04-18T08:20:07.064Z,11.37
2023-04-18T08:22:34.424Z,12.63
2023-04-18T08:25:05.053Z,16.63
2023-04-18T08:27:32.895Z,13.93
2023-04-18T08:30:01.405Z,11.77
2023-04-18T08:32:28.637Z,14.77
2023-04-18T08:34:56.568Z,10.53
2023-04-18T08:37:23.746Z,11.80
2023-04-18T08:39:50.853Z,10.97
2023-04-18T08:42:17.940Z,14.57
2023-04-18T08:44:45.143Z,10.60
2023-04-18T08:47:13.815Z,14.63
2023-04-18T08:49:41.042Z,12.40
2023-04-18T08:52:11.189Z,10.83
2023-04-18T08:54:38.378Z,11.27
2023-04-18T08:57:06.058Z,16.60
2023-04-18T08:59:33.527Z,12.60
2023-04-18T09:02:00.635Z,13.27
2023-04-18T09:04:36.475Z,13.70
2023-04-18T09:07:04.346Z,12.40
2023-04-18T09:09:41.456Z,13.13
2023-04-18T09:12:09.683Z,11.00
2023-04-18T09:14:36.812Z,12.83
2023-04-18T09:17:04.496Z,12.97
2023-04-18T09:19:31.710Z,14.47
2023-04-18T09:22:01.348Z,11.03
2023-04-18T09:24:29.185Z,13.13
2023-04-18T09:26:57.145Z,13.67
2023-04-18T09:29:41.912Z,12.63
2023-04-18T09:32:09.108Z,11.77
2023-04-18T09:34:41.923Z,14.20
2023-04-18T09:37:11.757Z,14.53
2023-04-18T09:39:39.516Z,14.47
2023-04-18T09:42:06.776Z,16.17
2023-04-18T09:44:34.084Z,14.23
2023-04-18T09:47:01.388Z,13.63
2023-04-18T09:49:28.758Z,11.90
2023-04-18T09:51:56.515Z,12.43
2023-04-18T09:54:25.794Z,13.27
2023-04-18T09:56:53.584Z,13.90
2023-04-18T09:59:28.127Z,14.80
2023-04-18T10:01:56.261Z,17.50
2023-04-18T10:04:23.944Z,16.80
2023-04-18T10:06:51.182Z,15.97
2023-04-18T10:09:18.510Z,16.00
2023-04-18T10:11:47.186Z,13.50
2023-04-18T10:14:16.218Z,14.77
2023-04-18T10:16:44.141Z,14.60
2023-04-18T10:19:20.788Z,15.90
2023-04-18T10:21:51.634Z,20.47
2023-04-18T10:24:33.699Z,17.37
2023-04-18T10:27:02.189Z,16.00
2023-04-18T10:29:44.200Z,15.07
2023-04-18T10:32:11.424Z,14.20
2023-04-18T10:34:38.561Z,16.83
2023-04-18T10:37:06.062Z,14.30
2023-04-18T10:39:47.396Z,14.33
2023-04-18T10:42:15.855Z,15.90
2023-04-18T10:44:42.916Z,12.73
2023-04-18T10:47:20.122Z,13.63
2023-04-18T10:49:57.219Z,14.30
2023-04-18T10:52:24.447Z,12.43
2023-04-18T10:54:52.758Z,21.90
2023-04-18T10:57:21.312Z,14.73
2023-04-18T10:59:49.560Z,16.93
2023-04-18T11:02:23.720Z,18.37
2023-04-18T11:04:51.107Z,13.73
2023-04-18T11:07:18.212Z,19.80
2023-04-18T11:09:52.008Z,17.77
2023-04-18T11:12:20.652Z,12.50
2023-04-18T11:14:49.219Z,15.80
2023-04-18T11:17:19.655Z,15.57
2023-04-18T11:19:46.977Z,15.00
2023-04-18T11:22:14.595Z,13.63
2023-04-18T11:24:42.018Z,14.17
2023-04-18T11:27:09.721Z,17.80
2023-04-18T11:29:38.281Z,13.83
2023-04-18T11:32:06.724Z,24.10
2023-04-18T11:34:34.226Z,13.23
2023-04-18T11:37:01.463Z,14.33
2023-04-18T11:39:28.769Z,13.60
2023-04-18T11:41:56.046Z,12.97
2023-04-18T11:44:24.179Z,13.73
2023-04-18T11:46:52.685Z,12.47
2023-04-18T11:49:29.492Z,15.30
2023-04-18T11:51:56.844Z,13.63
2023-04-18T11:54:36.629Z,13.30
2023-04-18T11:57:03.749Z,14.77
2023-04-18T11:59:31.148Z,15.43
2023-04-18T12:02:15.468Z,15.13
2023-04-18T12:04:50.642Z,13.73
2023-04-18T12:07:30.190Z,12.30
2023-04-18T12:09:57.297Z,14.67
2023-04-18T12:12:24.460Z,15.53
2023-04-18T12:14:58.114Z,12.17
2023-04-18T12:17:27.360Z,13.07
2023-04-18T12:19:54.524Z,12.60
2023-04-18T12:22:37.155Z,12.60
2023-04-18T12:25:14.448Z,15.20
2023-04-18T12:27:51.634Z,10.87
2023-04-18T12:30:18.988Z,14.30
2023-04-18T12:32:47.812Z,14.63
2023-04-18T12:35:15.319Z,13.40
2023-04-18T12:37:42.452Z,12.97
2023-04-18T12:40:10.224Z,12.43
2023-04-18T12:42:37.296Z,14.40
2023-04-18T12:45:04.640Z,18.80
2023-04-18T12:47:31.796Z,16.07
2023-04-18T12:50:00.352Z,16.30
2023-04-18T12:52:27.480Z,12.47
2023-04-18T12:54:54.572Z,13.50
2023-04-18T12:57:21.602Z,20.48
2023-04-18T12:59:48.683Z,12.45
2023-04-18T13:02:15.856Z,13.77
2023-04-18T13:04:43.133Z,17.88
2023-04-18T13:07:12.182Z,14.30
2023-04-18T13:09:39.219Z,11.70
2023-04-18T13:12:06.587Z,12.93
2023-04-18T13:14:33.732Z,11.03
2023-04-18T13:17:00.901Z,18.57
2023-04-18T13:19:28.069Z,12.97
2023-04-18T13:21:55.173Z,13.73
2023-04-18T13:24:23.629Z,17.33
2023-04-18T13:26:50.683Z,13.67
2023-04-18T13:29:17.745Z,14.63
2023-04-18T13:31:45.056Z,13.60
2023-04-18T13:34:12.130Z,11.67
2023-04-18T13:36:39.213Z,13.47
2023-04-18T13:39:06.789Z,15.03
2023-04-18T13:41:35.290Z,20.03
2023-04-18T13:44:04.006Z,11.90
2023-04-18T13:46:31.187Z,14.40
2023-04-18T13:48:58.430Z,12.18
2023-04-18T13:51:25.846Z,12.20
2023-04-18T13:53:52.980Z,11.30
2023-04-18T13:56:20.031Z,12.73
2023-04-18T13:58:48.457Z,13.93
2023-04-18T14:01:15.530Z,10.93
2023-04-18T14:03:43.872Z,12.80
2023-04-18T14:06:11.245Z,12.55
2023-04-18T14:08:38.392Z,10.30
2023-04-18T14:11:05.595Z,11.07
2023-04-18T14:13:32.790Z,13.00
2023-04-18T14:16:01.583Z,16.40
2023-04-18T14:18:28.713Z,14.07
2023-04-18T14:20:55.916Z,13.57
2023-04-18T14:23:22.979Z,12.40
2023-04-18T14:25:50.072Z,19.20
2023-04-18T14:28:17.183Z,13.50
2023-04-18T14:30:44.578Z,11.30
2023-04-18T14:33:12.989Z,12.00
2023-04-18T14:35:40.154Z,12.07
2023-04-18T14:38:07.316Z,10.80
2023-04-18T14:40:34.412Z,10.80
2023-04-18T14:43:01.645Z,12.30
2023-04-18T14:45:28.936Z,12.07
2023-04-18T14:47:56.152Z,11.48
2023-04-18T14:50:24.763Z,10.38
2023-04-18T14:52:51.824Z,10.50
2023-04-18T14:55:18.980Z,11.15
2023-04-18T14:57:46.614Z,13.10
2023-04-18T15:00:14.355Z,10.30
2023-04-18T15:02:41.846Z,11.53
2023-04-18T15:05:09.915Z,9.40
2023-04-18T15:07:38.524Z,10.30
2023-04-18T15:10:06.228Z,10.47
2023-04-18T15:12:33.416Z,9.52
2023-04-18T15:15:00.680Z,9.25
2023-04-18T15:17:28.351Z,11.00
2023-04-18T15:19:55.592Z,9.68
2023-04-18T15:22:22.847Z,9.82
2023-04-18T15:24:51.282Z,10.07
2023-04-18T15:27:18.432Z,13.00
2023-04-18T15:29:45.543Z,7.95
2023-04-18T15:32:12.750Z,8.80
2023-04-18T15:34:40.067Z,9.45
2023-04-18T15:37:07.304Z,9.10
2023-04-18T15:39:34.589Z,8.65
2023-04-18T15:42:03.199Z,9.25
2023-04-18T15:44:30.367Z,8.13
2023-04-18T15:46:57.556Z,8.48
2023-04-18T15:49:24.774Z,7.75
2023-04-18T15:51:51.862Z,6.68
2023-04-18T15:54:18.994Z,6.90
2023-04-18T15:56:46.072Z,9.07
2023-04-18T15:59:14.676Z,10.65
2023-04-18T16:01:42.780Z,11.75
2023-04-18T16:04:11.632Z,12.03
2023-04-18T16:06:38.787Z,12.40
2023-04-18T16:09:05.900Z,11.07
2023-04-18T16:11:33.066Z,11.87
2023-04-18T16:14:00.336Z,12.13
2023-04-18T16:16:28.961Z,12.40
2023-04-18T16:18:56.067Z,11.63
2023-04-18T16:21:23.122Z,12.40
2023-04-18T16:23:50.284Z,10.80
2023-04-18T16:26:17.556Z,12.07
2023-04-18T16:28:44.660Z,12.40
2023-04-18T16:31:11.969Z,13.57
2023-04-18T16:33:40.594Z,12.80
2023-04-18T16:36:07.877Z,14.40
2023-04-18T16:38:35.038Z,13.40
2023-04-18T16:41:02.135Z,12.63
2023-04-18T16:43:29.237Z,13.63
2023-04-18T16:45:56.536Z,14.30
2023-04-18T16:48:23.935Z,13.77
2023-04-18T16:50:52.376Z,15.20
2023-04-18T16:53:19.512Z,12.40
2023-04-18T16:55:46.581Z,14.23
2023-04-18T16:58:13.835Z,12.63
2023-04-18T17:00:40.961Z,13.10
2023-04-18T17:03:08.189Z,13.60
2023-04-18T17:05:35.327Z,12.30
2023-04-18T17:08:03.782Z,16.60
2023-04-18T17:10:31.150Z,13.00
2023-04-18T17:12:58.446Z,14.50
2023-04-18T17:15:26.568Z,16.07
2023-04-18T17:17:53.699Z,19.60
2023-04-18T17:20:21.019Z,14.17
2023-04-18T17:22:48.197Z,12.13
2023-04-18T17:25:16.759Z,12.93
2023-04-18T17:27:43.851Z,13.90
2023-04-18T17:30:11.558Z,15.50
2023-04-18T17:32:38.790Z,14.37
2023-04-18T17:35:06.227Z,15.37
2023-04-18T17:37:33.424Z,14.97
2023-04-18T17:40:00.526Z,14.27
2023-04-18T17:42:28.908Z,14.10
2023-04-18T17:44:55.989Z,14.10
2023-04-18T17:47:23.079Z,14.67
2023-04-18T17:49:50.218Z,14.80
2023-04-18T17:52:17.260Z,14.10
2023-04-18T17:54:44.332Z,15.90
2023-04-18T17:57:11.355Z,14.77
2023-04-18T17:59:39.766Z,17.97
2023-04-18T18:02:07.413Z,14.27
2023-04-18T18:04:35.053Z,15.30
2023-04-18T18:07:02.270Z,19.30
2023-04-18T18:09:29.494Z,16.00
2023-04-18T18:11:56.574Z,15.20
2023-04-18T18:14:23.894Z,14.33
2023-04-18T18:16:52.524Z,18.00
2023-04-18T18:19:19.980Z,15.70
2023-04-18T18:21:47.225Z,14.90
2023-04-18T18:24:14.343Z,17.00
2023-04-18T18:26:41.416Z,16.10
2023-04-18T18:29:08.534Z,19.87
2023-04-18T18:31:35.871Z,15.83
2023-04-18T18:34:04.594Z,16.40
2023-04-18T18:36:31.718Z,15.77
2023-04-18T18:38:58.812Z,15.53
2023-04-18T18:41:25.987Z,17.53
2023-04-18T18:43:53.166Z,19.27
2023-04-18T18:46:20.280Z,21.20
2023-04-18T18:48:47.495Z,16.50
2023-04-18T18:51:16.466Z,18.63
2023-04-18T18:53:43.634Z,22.67
2023-04-18T18:56:10.701Z,18.10
2023-04-18T18:58:37.814Z,14.83
2023-04-18T19:01:04.952Z,20.27
2023-04-18T19:03:32.300Z,17.90
2023-04-18T19:05:59.458Z,14.63
2023-04-18T19:08:27.921Z,17.07
2023-04-18T19:10:54.971Z,20.60
2023-04-18T19:13:22.292Z,21.50
2023-04-18T19:15:49.518Z,17.50
2023-04-18T19:18:16.657Z,18.43
2023-04-18T19:20:43.706Z,18.20
2023-04-18T19:23:10.745Z,19.73
2023-04-18T19:25:39.134Z,17.70
2023-04-18T19:28:06.412Z,16.93
2023-04-18T19:30:33.553Z,18.97
2023-04-18T19:33:00.740Z,20.50
2023-04-18T19:35:27.928Z,21.43
2023-04-18T19:37:55.160Z,20.20
2023-04-18T19:40:22.493Z,16.77
2023-04-18T19:42:50.966Z,19.40
2023-04-18T19:45:18.212Z,20.37
2023-04-18T19:47:45.379Z,17.07
2023-04-18T19:50:12.643Z,20.10
2023-04-18T19:52:39.888Z,19.00
2023-04-18T19:55:07.568Z,18.30
2023-04-18T19:57:36.797Z,14.20
2023-04-18T20:00:05.783Z,19.20
2023-04-18T20:02:40.159Z,18.80
2023-04-18T20:05:08.202Z,20.30
2023-04-18T20:07:35.749Z,19.03
2023-04-18T20:10:02.888Z,18.50
2023-04-18T20:12:29.990Z,17.27
2023-04-18T20:14:57.199Z,18.53
2023-04-18T20:17:25.792Z,15.27
2023-04-18T20:19:52.919Z,17.73
2023-04-18T20:22:20.062Z,16.90
2023-04-18T20:24:47.129Z,15.37
2023-04-18T20:27:14.365Z,17.10
2023-04-18T20:29:41.517Z,16.00
2023-04-18T20:32:08.592Z,17.87
2023-04-18T20:34:37.084Z,17.30
2023-04-18T20:37:04.298Z,17.40
2023-04-18T20:39:31.391Z,15.63
2023-04-18T20:41:58.434Z,17.17
2023-04-18T20:44:25.501Z,18.87
2023-04-18T20:46:52.700Z,17.50
2023-04-18T20:49:19.848Z,15.20
2023-04-18T20:51:48.281Z,15.20
2023-04-18T20:54:15.576Z,19.07
2023-04-18T20:56:42.938Z,17.10
2023-04-18T20:59:09.974Z,15.70
2023-04-18T21:01:37.249Z,15.00
2023-04-18T21:04:04.619Z,15.77
2023-04-18T21:06:31.861Z,20.30
2023-04-18T21:09:00.318Z,16.07
2023-04-18T21:11:27.402Z,19.20
2023-04-18T21:13:54.605Z,17.67
2023-04-18T21:16:21.718Z,18.20
2023-04-18T21:18:48.801Z,16.10
2023-04-18T21:21:15.995Z,18.27
2023-04-18T21:23:43.423Z,14.57
2023-04-18T21:26:12.943Z,18.17
2023-04-18T21:28:52.818Z,19.20
2023-04-18T21:31:19.977Z,18.23
2023-04-18T21:33:47.109Z,16.03
2023-04-18T21:36:14.184Z,16.20
2023-04-18T21:38:41.195Z,19.27
2023-04-18T21:41:08.252Z,17.03
2023-04-18T21:43:36.752Z,16.90
2023-04-18T21:46:03.873Z,18.13
2023-04-18T21:48:30.922Z,17.97
2023-04-18T21:50:58.101Z,18.30
2023-04-18T21:53:25.176Z,18.23
2023-04-18T21:55:52.245Z,19.43
2023-04-18T21:58:19.342Z,16.73
2023-04-18T22:00:47.739Z,18.27
2023-04-18T22:03:15.049Z,17.03
2023-04-18T22:05:42.239Z,14.60
2023-04-18T22:08:09.354Z,16.17
2023-04-18T22:10:36.613Z,18.03
2023-04-18T22:13:03.947Z,16.20
2023-04-18T22:15:31.193Z,15.83
2023-04-18T22:17:59.832Z,18.10
2023-04-18T22:20:27.224Z,16.63
2023-04-18T22:22:54.620Z,19.30
2023-04-18T22:25:21.904Z,18.00
2023-04-18T22:27:49.098Z,21.40
2023-04-18T22:30:16.452Z,15.67
2023-04-18T22:32:43.619Z,20.97
2023-04-18T22:35:12.082Z,18.40
2023-04-18T22:37:39.217Z,17.07
2023-04-18T22:40:07.127Z,16.43
2023-04-18T22:42:35.190Z,22.13
2023-04-18T22:45:04.148Z,17.97
2023-04-18T22:47:31.414Z,19.10
2023-04-18T22:49:58.566Z,16.43
2023-04-18T22:52:26.956Z,17.60
2023-04-18T22:54:54.082Z,22.00
2023-04-18T22:57:21.240Z,19.77
2023-04-18T22:59:48.333Z,18.43
2023-04-18T23:02:15.478Z,19.97
2023-04-18T23:04:42.641Z,21.83
2023-04-18T23:07:09.775Z,23.27
2023-04-18T23:09:38.328Z,20.80
2023-04-18T23:12:05.939Z,18.00
2023-04-18T23:14:33.028Z,20.87
2023-04-18T23:17:00.073Z,23.40
2023-04-18T23:19:27.378Z,24.53
2023-04-18T23:21:54.466Z,20.03
2023-04-18T23:24:21.765Z,18.67
2023-04-18T23:26:50.230Z,18.33
2023-04-18T23:29:17.347Z,20.30
2023-04-18T23:31:44.411Z,19.10
2023-04-18T23:34:11.556Z,23.70
2023-04-18T23:36:38.606Z,19.63
2023-04-18T23:39:05.810Z,20.20
2023-04-18T23:41:33.112Z,20.27
2023-04-18T23:44:01.525Z,19.13
2023-04-18T23:46:28.684Z,19.40
2023-04-18T23:48:55.779Z,21.00
2023-04-18T23:51:22.851Z,16.20
2023-04-18T23:53:49.905Z,17.57
2023-04-18T23:56:17.101Z,20.47
2023-04-18T23:58:44.325Z,16.97
